createdAt,value
2018-07-11T00:00:22.241Z,0
2018-07-11T00:01:22.231Z,0
2018-07-11T00:02:22.224Z,0
2018-07-11T00:03:22.213Z,0
2018-07-11T00:04:22.206Z,0
2018-07-11T00:05:21.940Z,0
2018-07-11T00:06:22.189Z,0
2018-07-11T00:07:22.178Z,0
2018-07-11T00:08:22.170Z,0
2018-07-11T00:09:22.164Z,0
2018-07-11T00:10:22.156Z,0
2018-07-11T00:11:22.147Z,0
2018-07-11T00:12:22.138Z,0
2018-07-11T00:13:22.130Z,0
2018-07-11T00:14:21.865Z,0
2018-07-11T00:15:22.113Z,0
2018-07-11T00:16:22.107Z,0
2018-07-11T00:17:22.095Z,0
2018-07-11T00:18:22.086Z,0
2018-07-11T00:19:22.081Z,0
2018-07-11T00:20:21.810Z,0
2018-07-11T00:21:22.065Z,0
2018-07-11T00:22:21.797Z,0
2018-07-11T00:23:22.046Z,0
2018-07-11T00:24:22.034Z,0
2018-07-11T00:25:22.028Z,0
2018-07-11T00:26:22.019Z,0
2018-07-11T00:27:22.008Z,0
2018-07-11T00:28:21.998Z,0
2018-07-11T00:29:21.993Z,0
2018-07-11T00:30:21.979Z,0
2018-07-11T00:31:21.972Z,0
2018-07-11T00:32:21.968Z,0
2018-07-11T00:33:21.959Z,0
2018-07-11T00:34:21.948Z,0
2018-07-11T00:35:21.942Z,0
2018-07-11T00:36:21.927Z,0
2018-07-11T00:37:21.803Z,0
2018-07-11T00:38:21.909Z,0
2018-07-11T00:39:21.901Z,0
2018-07-11T00:40:21.896Z,0
2018-07-11T00:41:21.882Z,0
2018-07-11T00:42:21.876Z,0
2018-07-11T00:43:21.867Z,0
2018-07-11T00:44:21.656Z,0
2018-07-11T00:45:21.865Z,0
2018-07-11T00:46:21.842Z,0
2018-07-11T00:47:21.829Z,0
2018-07-11T00:48:21.823Z,0
2018-07-11T00:49:21.815Z,0
2018-07-11T00:50:21.804Z,0
2018-07-11T00:51:21.792Z,0
2018-07-11T00:52:21.785Z,0
2018-07-11T00:53:21.800Z,0
2018-07-11T00:54:21.810Z,0
2018-07-11T00:55:21.775Z,0
2018-07-11T00:56:21.781Z,0
2018-07-11T00:57:21.780Z,0
2018-07-11T00:58:21.736Z,0
2018-07-11T00:59:21.775Z,0
2018-07-11T01:00:21.766Z,0
2018-07-11T01:01:21.749Z,0
2018-07-11T01:02:21.726Z,0
2018-07-11T01:03:21.687Z,0
2018-07-11T01:04:21.683Z,0
2018-07-11T01:05:21.671Z,0
2018-07-11T01:06:21.664Z,0
2018-07-11T01:07:21.675Z,0
2018-07-11T01:08:21.697Z,0
2018-07-11T01:09:21.642Z,0
2018-07-11T01:10:21.633Z,0
2018-07-11T01:11:21.610Z,0
2018-07-11T01:12:21.613Z,0
2018-07-11T01:13:21.599Z,0
2018-07-11T01:14:21.582Z,0
2018-07-11T01:15:21.571Z,0
2018-07-11T01:16:21.565Z,0
2018-07-11T01:17:21.553Z,0
2018-07-11T01:18:21.546Z,0
2018-07-11T01:19:21.539Z,0
2018-07-11T01:20:21.530Z,0
2018-07-11T01:21:21.519Z,0
2018-07-11T01:22:21.507Z,0
2018-07-11T01:23:21.501Z,0
2018-07-11T01:24:21.484Z,0
2018-07-11T01:25:21.490Z,0
2018-07-11T01:26:21.470Z,0
2018-07-11T01:27:21.457Z,0
2018-07-11T01:28:21.448Z,0
2018-07-11T01:29:21.438Z,0
2018-07-11T01:30:21.175Z,0
2018-07-11T01:31:21.164Z,0
2018-07-11T01:32:21.412Z,0
2018-07-11T01:33:21.398Z,0
2018-07-11T01:34:21.388Z,0
2018-07-11T01:35:21.381Z,0
2018-07-11T01:36:21.368Z,0
2018-07-11T01:37:21.362Z,0
2018-07-11T01:38:21.351Z,0
2018-07-11T01:39:21.342Z,0
2018-07-11T01:40:21.338Z,0
2018-07-11T01:41:21.327Z,0
2018-07-11T01:42:21.059Z,0
2018-07-11T01:43:21.302Z,0
2018-07-11T01:44:21.039Z,0
2018-07-11T01:45:21.287Z,0
2018-07-11T01:46:21.024Z,0
2018-07-11T01:47:21.267Z,0
2018-07-11T01:48:21.255Z,0
2018-07-11T01:49:21.247Z,0
2018-07-11T01:50:21.238Z,0
2018-07-11T01:51:21.227Z,0
2018-07-11T01:52:21.217Z,0
2018-07-11T01:53:21.210Z,0
2018-07-11T01:54:21.202Z,0
2018-07-11T01:55:21.192Z,0
2018-07-11T01:56:21.182Z,0
2018-07-11T01:57:21.168Z,0
2018-07-11T01:58:21.162Z,0
2018-07-11T01:59:21.150Z,0
2018-07-11T02:00:21.149Z,0
2018-07-11T02:01:21.133Z,0
2018-07-11T02:02:21.124Z,0
2018-07-11T02:03:21.120Z,0
2018-07-11T02:04:21.106Z,0
2018-07-11T02:05:21.098Z,0
2018-07-11T02:06:21.090Z,0
2018-07-11T02:07:20.822Z,0
2018-07-11T02:08:21.070Z,0
2018-07-11T02:09:21.065Z,0
2018-07-11T02:10:21.056Z,0
2018-07-11T02:11:21.048Z,0
2018-07-11T02:12:20.779Z,0
2018-07-11T02:13:21.031Z,0
2018-07-11T02:14:21.021Z,0
2018-07-11T02:15:21.009Z,0
2018-07-11T02:16:20.995Z,0
2018-07-11T02:17:20.986Z,0
2018-07-11T02:18:20.992Z,0
2018-07-11T02:19:21.028Z,0
2018-07-11T02:20:20.977Z,0
2018-07-11T02:21:20.971Z,0
2018-07-11T02:22:20.949Z,0
2018-07-11T02:23:20.946Z,0
2018-07-11T02:24:20.940Z,0
2018-07-11T02:25:20.916Z,0
2018-07-11T02:26:21.020Z,0
2018-07-11T02:27:20.978Z,0
2018-07-11T02:28:20.900Z,0
2018-07-11T02:29:20.891Z,0
2018-07-11T02:30:20.927Z,0
2018-07-11T02:31:20.953Z,0
2018-07-11T02:32:20.943Z,0
2018-07-11T02:33:20.942Z,0
2018-07-11T02:34:20.899Z,0
2018-07-11T02:35:20.876Z,0
2018-07-11T02:36:20.902Z,0
2018-07-11T02:37:20.580Z,0
2018-07-11T02:38:20.818Z,0
2018-07-11T02:39:20.804Z,0
2018-07-11T02:40:20.820Z,0
2018-07-11T02:41:20.773Z,0
2018-07-11T02:42:20.764Z,0
2018-07-11T02:43:20.761Z,0
2018-07-11T02:44:20.749Z,0
2018-07-11T02:45:20.744Z,0
2018-07-11T02:46:20.474Z,0
2018-07-11T02:47:20.728Z,0
2018-07-11T02:48:20.720Z,0
2018-07-11T02:49:20.706Z,0
2018-07-11T02:50:20.707Z,0
2018-07-11T02:51:20.692Z,0
2018-07-11T02:52:20.679Z,0
2018-07-11T02:53:20.668Z,0
2018-07-11T02:54:20.664Z,0
2018-07-11T02:55:20.668Z,0
2018-07-11T02:56:20.642Z,0
2018-07-11T02:57:20.640Z,0
2018-07-11T02:58:20.632Z,0
2018-07-11T02:59:20.618Z,0.57
2018-07-11T03:00:20.617Z,0.95
2018-07-11T03:01:20.605Z,1.62
2018-07-11T03:02:20.591Z,1.52
2018-07-11T03:03:20.588Z,1.62
2018-07-11T03:04:20.580Z,1.14
2018-07-11T03:05:20.577Z,0.95
2018-07-11T03:06:20.562Z,0.67
2018-07-11T03:07:20.548Z,0.67
2018-07-11T03:08:20.539Z,0.09
2018-07-11T03:09:20.541Z,0.19
2018-07-11T03:10:20.524Z,0
2018-07-11T03:11:20.512Z,0
2018-07-11T03:12:20.502Z,0.09
2018-07-11T03:13:20.494Z,0.28
2018-07-11T03:14:20.503Z,0.48
2018-07-11T03:15:20.480Z,0.85
2018-07-11T03:16:20.482Z,0.95
2018-07-11T03:17:20.466Z,1.23
2018-07-11T03:18:20.454Z,1.52
2018-07-11T03:19:20.442Z,2.09
2018-07-11T03:20:20.435Z,2.47
2018-07-11T03:21:20.431Z,3.33
2018-07-11T03:22:20.424Z,4.28
2018-07-11T03:23:20.419Z,4.47
2018-07-11T03:24:20.398Z,4.66
2018-07-11T03:25:20.393Z,4.19
2018-07-11T03:26:20.385Z,3.9
2018-07-11T03:27:20.392Z,3.81
2018-07-11T03:28:20.366Z,3.62
2018-07-11T03:29:20.361Z,3.42
2018-07-11T03:30:20.382Z,3.23
2018-07-11T03:31:20.082Z,3.14
2018-07-11T03:32:20.079Z,2.76
2018-07-11T03:33:20.322Z,2.76
2018-07-11T03:34:20.314Z,3.05
2018-07-11T03:35:20.304Z,3.05
2018-07-11T03:36:20.292Z,3.33
2018-07-11T03:37:20.287Z,3.9
2018-07-11T03:38:20.287Z,4.1
2018-07-11T03:39:20.272Z,4.28
2018-07-11T03:40:20.274Z,4.38
2018-07-11T03:41:20.257Z,4.66
2018-07-11T03:42:19.986Z,4.66
2018-07-11T03:43:20.237Z,4.76
2018-07-11T03:44:20.230Z,5.05
2018-07-11T03:45:19.962Z,5.05
2018-07-11T03:46:20.209Z,5.05
2018-07-11T03:47:20.213Z,4.95
2018-07-11T03:48:20.194Z,4.95
2018-07-11T03:49:20.189Z,5.52
2018-07-11T03:50:20.183Z,5.9
2018-07-11T03:51:20.168Z,6.29
2018-07-11T03:52:20.156Z,6.38
2018-07-11T03:53:20.158Z,6.76
2018-07-11T03:54:19.887Z,6.57
2018-07-11T03:55:20.134Z,6.48
2018-07-11T03:56:20.123Z,6.29
2018-07-11T03:57:19.860Z,5.9
2018-07-11T03:58:20.108Z,5.52
2018-07-11T03:59:20.099Z,4.95
2018-07-11T04:00:20.088Z,4.57
2018-07-11T04:01:19.825Z,4.57
2018-07-11T04:02:20.069Z,4.66
2018-07-11T04:03:19.808Z,4.86
2018-07-11T04:04:20.060Z,4.38
2018-07-11T04:05:20.048Z,4.47
2018-07-11T04:06:20.040Z,4.38
2018-07-11T04:07:20.029Z,4.1
2018-07-11T04:08:20.026Z,3.62
2018-07-11T04:09:20.014Z,3.81
2018-07-11T04:10:20.001Z,3.71
2018-07-11T04:11:19.993Z,4
2018-07-11T04:12:19.988Z,4.57
2018-07-11T04:13:19.978Z,5.33
2018-07-11T04:14:19.967Z,6.38
2018-07-11T04:15:19.706Z,7.53
2018-07-11T04:16:19.950Z,8.76
2018-07-11T04:17:19.946Z,9.81
2018-07-11T04:18:19.681Z,10.96
2018-07-11T04:19:19.672Z,11.91
2018-07-11T04:20:19.920Z,12.96
2018-07-11T04:21:19.913Z,13.15
2018-07-11T04:22:19.902Z,11.91
2018-07-11T04:23:19.893Z,10.86
2018-07-11T04:24:19.889Z,10
2018-07-11T04:25:19.877Z,9.53
2018-07-11T04:26:19.872Z,10.11
2018-07-11T04:27:19.607Z,10.96
2018-07-11T04:28:19.853Z,11.54
2018-07-11T04:29:19.848Z,12.4
2018-07-11T04:30:19.841Z,14.01
2018-07-11T04:31:19.884Z,16.4
2018-07-11T04:32:19.824Z,18.02
2018-07-11T04:33:19.844Z,19.26
2018-07-11T04:34:19.810Z,20.6
2018-07-11T04:35:19.796Z,21.08
2018-07-11T04:36:19.788Z,21.45
2018-07-11T04:37:19.781Z,22.89
2018-07-11T04:38:19.775Z,24.52
2018-07-11T04:39:19.767Z,25.85
2018-07-11T04:40:19.768Z,27.48
2018-07-11T04:41:19.754Z,28.81
2018-07-11T04:42:19.743Z,30.34
2018-07-11T04:43:19.479Z,32.44
2018-07-11T04:44:19.471Z,34.25
2018-07-11T04:45:19.463Z,36.44
2018-07-11T04:46:19.712Z,37.8
2018-07-11T04:47:19.707Z,38.76
2018-07-11T04:48:19.699Z,39.81
2018-07-11T04:49:19.437Z,44.29
2018-07-11T04:50:19.431Z,48.88
2018-07-11T04:51:19.681Z,48.3
2018-07-11T04:52:19.669Z,45.43
2018-07-11T04:53:19.663Z,44.38
2018-07-11T04:54:19.655Z,47.23
2018-07-11T04:55:19.657Z,46.47
2018-07-11T04:56:19.650Z,46.3
2018-07-11T04:57:19.374Z,45.79
2018-07-11T04:58:19.626Z,43.51
2018-07-11T04:59:19.622Z,40.26
2018-07-11T05:00:19.608Z,37.49
2018-07-11T05:01:19.605Z,35.87
2018-07-11T05:02:19.599Z,34.46
2018-07-11T05:03:19.591Z,36.46
2018-07-11T05:04:19.584Z,36.08
2018-07-11T05:05:19.576Z,37.42
2018-07-11T05:06:19.571Z,38.56
2018-07-11T05:07:19.305Z,38.76
2018-07-11T05:08:19.304Z,37.8
2018-07-11T05:09:19.545Z,38.18
2018-07-11T05:10:19.539Z,40.19
2018-07-11T05:11:19.280Z,40.45
2018-07-11T05:12:19.528Z,35.89
2018-07-11T05:13:19.261Z,32.06
2018-07-11T05:14:19.513Z,31.2
2018-07-11T05:15:19.247Z,29.1
2018-07-11T05:16:19.668Z,29.88
2018-07-11T05:17:19.492Z,31.12
2018-07-11T05:18:19.490Z,31.88
2018-07-11T05:19:19.218Z,34.17
2018-07-11T05:20:19.472Z,34.55
2018-07-11T05:21:19.461Z,36.94
2018-07-11T05:22:19.454Z,35.89
2018-07-11T05:23:19.448Z,35.32
2018-07-11T05:24:19.442Z,33.5
2018-07-11T05:25:19.437Z,33.31
2018-07-11T05:26:19.170Z,33.6
2018-07-11T05:27:19.163Z,34.46
2018-07-11T05:28:19.426Z,36.08
2018-07-11T05:29:19.409Z,36.85
2018-07-11T05:30:19.400Z,34.46
2018-07-11T05:31:19.392Z,33.7
2018-07-11T05:32:19.382Z,33.79
2018-07-11T05:33:19.381Z,33.12
2018-07-11T05:34:19.372Z,34.08
2018-07-11T05:35:19.362Z,36.18
2018-07-11T05:36:19.413Z,40.19
2018-07-11T05:37:19.350Z,40.86
2018-07-11T05:38:19.088Z,41.91
2018-07-11T05:39:19.334Z,42.19
2018-07-11T05:40:19.330Z,42.67
2018-07-11T05:41:19.323Z,41.24
2018-07-11T05:42:19.323Z,41.33
2018-07-11T05:43:19.307Z,40.66
2018-07-11T05:44:19.306Z,39.04
2018-07-11T05:45:19.298Z,37.61
2018-07-11T05:46:19.294Z,35.89
2018-07-11T05:47:19.282Z,35.51
2018-07-11T05:48:19.418Z,35.51
2018-07-11T05:49:19.277Z,35.6
2018-07-11T05:50:19.008Z,35.7
2018-07-11T05:51:19.256Z,36.18
2018-07-11T05:52:19.253Z,35.6
2018-07-11T05:53:19.243Z,33.31
2018-07-11T05:54:19.233Z,33.41
2018-07-11T05:55:19.229Z,34.27
2018-07-11T05:56:19.223Z,35.22
2018-07-11T05:57:18.958Z,36.08
2018-07-11T05:58:19.211Z,38.56
2018-07-11T05:59:19.199Z,38.76
2018-07-11T06:00:19.196Z,37.51
2018-07-11T06:01:19.186Z,37.13
2018-07-11T06:02:19.178Z,34.46
2018-07-11T06:03:18.916Z,32.07
2018-07-11T06:04:19.169Z,30.35
2018-07-11T06:05:19.165Z,29.21
2018-07-11T06:06:19.153Z,29.69
2018-07-11T06:07:19.150Z,29.97
2018-07-11T06:08:18.883Z,31.5
2018-07-11T06:09:19.142Z,32.55
2018-07-11T06:10:19.127Z,31.98
2018-07-11T06:11:19.121Z,31.02
2018-07-11T06:12:19.115Z,31.69
2018-07-11T06:13:19.129Z,33.91
2018-07-11T06:14:19.101Z,33.7
2018-07-11T06:15:19.094Z,34.57
2018-07-11T06:16:18.856Z,36.77
2018-07-11T06:17:18.823Z,39.25
2018-07-11T06:18:19.074Z,41.55
2018-07-11T06:19:19.069Z,43.26
2018-07-11T06:20:19.083Z,44.6
2018-07-11T06:21:19.055Z,46.51
2018-07-11T06:22:18.789Z,45.75
2018-07-11T06:23:19.043Z,54.63
2018-07-11T06:24:18.776Z,55.11
2018-07-11T06:25:19.034Z,52.43
2018-07-11T06:26:18.766Z,53.67
2018-07-11T06:27:19.073Z,54.72
2018-07-11T06:28:19.008Z,55.96
2018-07-11T06:29:19.001Z,55.68
2018-07-11T06:30:18.999Z,53.29
2018-07-11T06:31:18.989Z,50.81
2018-07-11T06:32:18.986Z,44.51
2018-07-11T06:33:19.015Z,42.02
2018-07-11T06:34:18.982Z,40.69
2018-07-11T06:35:18.965Z,40.88
2018-07-11T06:36:18.975Z,42.11
2018-07-11T06:37:18.954Z,43.55
2018-07-11T06:38:18.945Z,45.37
2018-07-11T06:39:18.733Z,48.04
2018-07-11T06:40:18.930Z,48.04
2018-07-11T06:41:18.933Z,47.37
2018-07-11T06:42:18.917Z,49.38
2018-07-11T06:43:18.913Z,47.94
2018-07-11T06:44:18.957Z,48.99
2018-07-11T06:45:18.903Z,47.75
2018-07-11T06:46:18.896Z,44.89
2018-07-11T06:47:18.892Z,42.69
2018-07-11T06:48:18.884Z,42.21
2018-07-11T06:49:18.880Z,40.99
2018-07-11T06:50:18.880Z,39.08
2018-07-11T06:51:18.865Z,37.46
2018-07-11T06:52:18.859Z,39.27
2018-07-11T06:53:18.860Z,41.66
2018-07-11T06:54:18.846Z,41.68
2018-07-11T06:55:18.579Z,43.88
2018-07-11T06:56:18.833Z,49.71
2018-07-11T06:57:18.824Z,56.4
2018-07-11T06:58:18.826Z,61.38
2018-07-11T06:59:18.817Z,61.47
2018-07-11T07:00:18.811Z,60.23
2018-07-11T07:01:18.806Z,64.28
2018-07-11T07:02:18.804Z,71.73
2018-07-11T07:03:18.549Z,75.76
2018-07-11T07:04:18.531Z,75.56
2018-07-11T07:05:18.783Z,75.66
2018-07-11T07:06:18.780Z,77.33
2018-07-11T07:07:18.770Z,77.23
2018-07-11T07:08:18.768Z,78.13
2018-07-11T07:09:18.763Z,84.45
2018-07-11T07:10:18.503Z,92.35
2018-07-11T07:11:18.759Z,93.49
2018-07-11T07:12:18.746Z,99.99
2018-07-11T07:13:18.745Z,99.99
2018-07-11T07:14:18.480Z,99.99
2018-07-11T07:15:18.736Z,97.47
2018-07-11T07:16:18.471Z,95.7
2018-07-11T07:17:18.726Z,98.77
2018-07-11T07:18:18.462Z,99.99
2018-07-11T07:19:18.760Z,99.99
2018-07-11T07:20:18.712Z,99.99
2018-07-11T07:21:18.704Z,99.99
2018-07-11T07:22:18.707Z,99.99
2018-07-11T07:23:18.703Z,99.99
2018-07-11T07:24:18.697Z,99.99
2018-07-11T07:25:18.439Z,99.99
2018-07-11T07:26:18.692Z,99.99
2018-07-11T07:27:18.690Z,99.99
2018-07-11T07:28:18.684Z,99.99
2018-07-11T07:29:18.680Z,99.99
2018-07-11T07:30:18.422Z,99.99
2018-07-11T07:31:18.678Z,99.99
2018-07-11T07:32:18.417Z,99.99
2018-07-11T07:33:18.671Z,99.99
2018-07-11T07:34:18.671Z,99.99
2018-07-11T07:35:18.676Z,96.94
2018-07-11T07:36:18.670Z,92.47
2018-07-11T07:37:18.408Z,89
2018-07-11T07:38:18.659Z,87.4
2018-07-11T07:39:18.660Z,93.23
2018-07-11T07:40:18.662Z,94.87
2018-07-11T07:41:18.403Z,90.63
2018-07-11T07:42:18.658Z,88.37
2018-07-11T07:43:18.659Z,90.16
2018-07-11T07:44:18.657Z,93.48
2018-07-11T07:45:18.656Z,99.59
2018-07-11T07:46:18.659Z,99.88
2018-07-11T07:47:18.652Z,99.99
2018-07-11T07:48:18.655Z,99.99
2018-07-11T07:49:18.656Z,99.99
2018-07-11T07:50:18.393Z,99.99
2018-07-11T07:51:18.646Z,99.99
2018-07-11T07:52:18.647Z,99.99
2018-07-11T07:53:18.642Z,99.99
2018-07-11T07:54:18.389Z,99.99
2018-07-11T07:55:18.643Z,99.99
2018-07-11T07:56:18.638Z,99.99
2018-07-11T07:57:18.644Z,99.99
2018-07-11T07:58:18.631Z,99.99
2018-07-11T07:59:18.629Z,99.99
2018-07-11T08:00:18.375Z,99.99
2018-07-11T08:01:18.635Z,99.99
2018-07-11T08:02:18.624Z,99.99
2018-07-11T08:03:18.622Z,99.99
2018-07-11T08:04:18.368Z,99.99
2018-07-11T08:05:18.364Z,99.99
2018-07-11T08:06:18.618Z,99.99
2018-07-11T08:07:18.624Z,99.99
2018-07-11T08:08:18.612Z,99.99
2018-07-11T08:09:18.613Z,99.99
2018-07-11T08:10:18.612Z,99.99
2018-07-11T08:11:18.608Z,99.99
2018-07-11T08:12:18.609Z,99.99
2018-07-11T08:13:18.605Z,99.99
2018-07-11T08:14:18.601Z,99.99
2018-07-11T08:15:18.597Z,99.99
2018-07-11T08:16:18.596Z,99.99
2018-07-11T08:17:18.590Z,99.99
2018-07-11T08:18:18.591Z,99.99
2018-07-11T08:19:18.589Z,99.99
2018-07-11T08:20:18.586Z,99.99
2018-07-11T08:21:18.589Z,99.99
2018-07-11T08:22:18.580Z,99.99
2018-07-11T08:23:18.577Z,99.99
2018-07-11T08:24:18.577Z,99.99
2018-07-11T08:25:18.316Z,99.99
2018-07-11T08:26:18.571Z,99.99
2018-07-11T08:27:18.653Z,99.99
2018-07-11T08:28:18.309Z,99.99
2018-07-11T08:29:18.571Z,99.99
2018-07-11T08:30:18.564Z,99.99
2018-07-11T08:31:18.304Z,99.99
2018-07-11T08:32:18.300Z,99.99
2018-07-11T08:33:18.301Z,99.99
2018-07-11T08:34:18.295Z,99.99
2018-07-11T08:35:18.294Z,99.99
2018-07-11T08:36:18.290Z,99.99
2018-07-11T08:37:18.290Z,99.99
2018-07-11T08:38:18.544Z,99.99
2018-07-11T08:39:18.547Z,99.99
2018-07-11T08:40:18.541Z,99.99
2018-07-11T08:41:18.279Z,99.99
2018-07-11T08:42:18.537Z,99.99
2018-07-11T08:43:18.536Z,99.99
2018-07-11T08:44:18.536Z,99.99
2018-07-11T08:45:18.530Z,99.99
2018-07-11T08:46:18.529Z,99.99
2018-07-11T08:47:18.525Z,99.99
2018-07-11T08:48:18.676Z,99.99
2018-07-11T08:49:18.266Z,99.99
2018-07-11T08:50:18.259Z,99.99
2018-07-11T08:51:18.516Z,99.99
2018-07-11T08:52:18.513Z,99.99
2018-07-11T08:53:18.257Z,99.99
2018-07-11T08:54:18.253Z,99.99
2018-07-11T08:55:18.510Z,99.99
2018-07-11T08:56:18.510Z,99.99
2018-07-11T08:57:18.505Z,99.99
2018-07-11T08:58:18.506Z,99.99
2018-07-11T08:59:18.502Z,99.99
2018-07-11T09:00:18.503Z,99.99
2018-07-11T09:01:18.241Z,99.99
2018-07-11T09:02:18.502Z,99.99
2018-07-11T09:03:18.494Z,99.99
2018-07-11T09:04:18.493Z,99.99
2018-07-11T09:05:18.496Z,99.99
2018-07-11T09:06:18.493Z,99.99
2018-07-11T09:07:18.233Z,99.99
2018-07-11T09:08:18.229Z,99.99
2018-07-11T09:09:18.483Z,99.99
2018-07-11T09:10:18.484Z,99.99
2018-07-11T09:11:18.482Z,99.99
2018-07-11T09:12:18.224Z,99.99
2018-07-11T09:13:18.478Z,99.99
2018-07-11T09:14:18.222Z,99.99
2018-07-11T09:15:18.477Z,99.99
2018-07-11T09:16:18.475Z,99.99
2018-07-11T09:17:18.215Z,99.99
2018-07-11T09:18:18.473Z,99.99
2018-07-11T09:19:18.470Z,99.99
2018-07-11T09:20:18.468Z,99.99
2018-07-11T09:21:18.467Z,99.99
2018-07-11T09:22:18.504Z,99.99
2018-07-11T09:23:18.468Z,99.99
2018-07-11T09:24:18.565Z,99.99
2018-07-11T09:25:18.461Z,99.99
2018-07-11T09:26:18.460Z,99.99
2018-07-11T09:27:18.461Z,99.99
2018-07-11T09:28:18.455Z,99.99
2018-07-11T09:29:18.453Z,99.99
2018-07-11T09:30:18.449Z,99.99
2018-07-11T09:31:18.447Z,99.99
2018-07-11T09:32:18.453Z,99.99
2018-07-11T09:33:18.193Z,99.99
2018-07-11T09:34:18.448Z,99.99
2018-07-11T09:35:18.440Z,99.99
2018-07-11T09:36:18.438Z,99.99
2018-07-11T09:37:18.438Z,99.99
2018-07-11T09:38:18.432Z,99.99
2018-07-11T09:39:18.432Z,99.99
2018-07-11T09:40:18.429Z,99.99
2018-07-11T09:41:18.171Z,99.99
2018-07-11T09:42:18.425Z,99.99
2018-07-11T09:43:18.165Z,99.99
2018-07-11T09:44:18.162Z,99.99
2018-07-11T09:45:18.420Z,99.99
2018-07-11T09:46:18.417Z,99.99
2018-07-11T09:47:18.415Z,99.99
2018-07-11T09:48:18.155Z,99.99
2018-07-11T09:49:18.157Z,99.99
2018-07-11T09:50:18.148Z,99.99
2018-07-11T09:51:18.410Z,99.99
2018-07-11T09:52:18.684Z,99.99
2018-07-11T09:53:18.413Z,99.99
2018-07-11T09:54:18.140Z,99.99
2018-07-11T09:55:18.395Z,99.99
2018-07-11T09:56:18.395Z,99.99
2018-07-11T09:57:18.399Z,99.99
2018-07-11T09:58:18.390Z,99.99
2018-07-11T09:59:18.388Z,99.99
2018-07-11T10:00:18.125Z,99.99
2018-07-11T10:01:18.387Z,99.99
2018-07-11T10:02:18.380Z,99.99
2018-07-11T10:03:18.382Z,99.99
2018-07-11T10:04:18.378Z,99.99
2018-07-11T10:05:18.596Z,99.99
2018-07-11T10:06:18.376Z,99.99
2018-07-11T10:07:18.371Z,99.99
2018-07-11T10:08:18.371Z,99.99
2018-07-11T10:09:18.367Z,99.99
2018-07-11T10:10:18.106Z,99.99
2018-07-11T10:11:18.364Z,99.99
2018-07-11T10:12:18.362Z,99.1
2018-07-11T10:13:18.360Z,99.99
2018-07-11T10:14:18.358Z,99.99
2018-07-11T10:15:18.400Z,99.99
2018-07-11T10:16:18.096Z,99.99
2018-07-11T10:17:18.362Z,99.99
2018-07-11T10:18:18.365Z,99.99
2018-07-11T10:19:18.347Z,99.99
2018-07-11T10:20:18.348Z,99.99
2018-07-11T10:21:18.346Z,99.99
2018-07-11T10:22:18.342Z,99.99
2018-07-11T10:23:18.083Z,99.99
2018-07-11T10:24:18.346Z,99.99
2018-07-11T10:25:18.336Z,99.99
2018-07-11T10:26:18.333Z,99.99
2018-07-11T10:27:18.330Z,99.99
2018-07-11T10:28:18.327Z,99.99
2018-07-11T10:29:18.324Z,99.99
2018-07-11T10:30:18.068Z,99.99
2018-07-11T10:31:18.326Z,99.99
2018-07-11T10:32:18.322Z,99.99
2018-07-11T10:33:18.062Z,99.99
2018-07-11T10:34:18.067Z,99.99
2018-07-11T10:35:18.321Z,99.99
2018-07-11T10:36:18.311Z,99.99
2018-07-11T10:37:18.307Z,99.99
2018-07-11T10:38:18.309Z,99.99
2018-07-11T10:39:18.306Z,99.99
2018-07-11T10:40:18.045Z,99.99
2018-07-11T10:41:18.348Z,99.99
2018-07-11T10:42:18.039Z,99.99
2018-07-11T10:43:18.038Z,99.99
2018-07-11T10:44:18.294Z,99.99
2018-07-11T10:45:18.288Z,99.99
2018-07-11T10:46:18.290Z,99.99
2018-07-11T10:47:18.283Z,99.99
2018-07-11T10:48:18.284Z,99.99
2018-07-11T10:49:18.278Z,99.99
2018-07-11T10:50:18.276Z,99.99
2018-07-11T10:51:18.274Z,98.67
2018-07-11T10:52:18.272Z,99.24
2018-07-11T10:53:18.010Z,99.99
2018-07-11T10:54:18.009Z,99.99
2018-07-11T10:55:18.263Z,99.99
2018-07-11T10:56:18.261Z,99.99
2018-07-11T10:57:18.005Z,99.99
2018-07-11T10:58:17.995Z,99.99
2018-07-11T10:59:18.257Z,99.99
2018-07-11T11:00:38.729Z,99.99
2018-07-11T11:01:18.592Z,99.99
2018-07-11T11:02:18.243Z,99.99
2018-07-11T11:03:18.239Z,99.99
2018-07-11T11:04:18.234Z,99.99
2018-07-11T11:05:18.231Z,99.99
2018-07-11T11:06:18.232Z,99.99
2018-07-11T11:07:18.226Z,99.99
2018-07-11T11:08:18.228Z,99.99
2018-07-11T11:09:18.218Z,99.99
2018-07-11T11:10:18.220Z,99.99
2018-07-11T11:11:18.217Z,99.99
2018-07-11T11:12:17.959Z,99.99
2018-07-11T11:13:18.209Z,99.99
2018-07-11T11:14:18.209Z,99.99
2018-07-11T11:15:18.207Z,99.99
2018-07-11T11:16:18.203Z,99.99
2018-07-11T11:17:18.202Z,99.99
2018-07-11T11:18:18.202Z,99.99
2018-07-11T11:19:18.196Z,99.99
2018-07-11T11:20:18.194Z,99.99
2018-07-11T11:21:18.185Z,99.99
2018-07-11T11:22:18.188Z,99.99
2018-07-11T11:23:18.187Z,99.99
2018-07-11T11:24:17.924Z,99.99
2018-07-11T11:25:18.189Z,99.99
2018-07-11T11:26:18.174Z,99.99
2018-07-11T11:27:17.916Z,99.99
2018-07-11T11:28:17.913Z,99.99
2018-07-11T11:29:18.170Z,99.99
2018-07-11T11:30:18.166Z,99.99
2018-07-11T11:31:18.167Z,99.99
2018-07-11T11:32:17.905Z,99.99
2018-07-11T11:33:18.163Z,99.99
2018-07-11T11:34:18.162Z,99.99
2018-07-11T11:35:18.154Z,99.99
2018-07-11T11:36:18.166Z,99.99
2018-07-11T11:37:17.895Z,99.99
2018-07-11T11:38:18.149Z,99.99
2018-07-11T11:39:18.144Z,99.99
2018-07-11T11:40:17.888Z,99.99
2018-07-11T11:41:18.143Z,99.99
2018-07-11T11:42:18.754Z,99.99
2018-07-11T11:43:17.881Z,99.99
2018-07-11T11:44:18.135Z,99.99
2018-07-11T11:45:18.137Z,99.99
2018-07-11T11:46:17.873Z,99.99
2018-07-11T11:47:18.127Z,99.99
2018-07-11T11:48:18.127Z,99.99
2018-07-11T11:49:18.127Z,99.99
2018-07-11T11:50:18.122Z,99.99
2018-07-11T11:51:17.864Z,99.99
2018-07-11T11:52:17.861Z,99.99
2018-07-11T11:53:17.861Z,99.99
2018-07-11T11:54:17.852Z,99.99
2018-07-11T11:55:18.110Z,99.99
2018-07-11T11:56:17.850Z,99.99
2018-07-11T11:57:18.103Z,99.99
2018-07-11T11:58:18.103Z,99.99
2018-07-11T11:59:18.101Z,99.99
2018-07-11T12:00:18.097Z,99.99
2018-07-11T12:01:18.092Z,99.99
2018-07-11T12:02:17.834Z,99.99
2018-07-11T12:03:17.829Z,99.99
2018-07-11T12:04:18.095Z,99.99
2018-07-11T12:05:18.083Z,99.99
2018-07-11T12:06:18.079Z,99.99
2018-07-11T12:07:18.199Z,99.99
2018-07-11T12:08:18.072Z,99.99
2018-07-11T12:09:18.080Z,99.99
2018-07-11T12:10:18.067Z,99.99
2018-07-11T12:11:18.065Z,99.99
2018-07-11T12:12:18.062Z,99.99
2018-07-11T12:13:18.063Z,99.99
2018-07-11T12:14:18.057Z,99.99
2018-07-11T12:15:18.056Z,99.99
2018-07-11T12:16:18.056Z,99.99
2018-07-11T12:17:18.052Z,99.99
2018-07-11T12:18:18.047Z,99.99
2018-07-11T12:19:18.044Z,99.99
2018-07-11T12:20:18.042Z,99.99
2018-07-11T12:21:18.333Z,99.99
2018-07-11T12:22:17.781Z,99.99
2018-07-11T12:23:18.037Z,99.99
2018-07-11T12:24:18.035Z,99.99
2018-07-11T12:25:18.032Z,99.99
2018-07-11T12:26:18.028Z,99.99
2018-07-11T12:27:18.023Z,99.99
2018-07-11T12:28:17.766Z,99.99
2018-07-11T12:29:18.023Z,99.99
2018-07-11T12:30:18.018Z,99.99
2018-07-11T12:31:18.022Z,99.99
2018-07-11T12:32:18.016Z,99.99
2018-07-11T12:33:18.013Z,99.99
2018-07-11T12:34:17.752Z,99.99
2018-07-11T12:35:18.010Z,99.99
2018-07-11T12:36:17.750Z,99.99
2018-07-11T12:37:18.003Z,99.99
2018-07-11T12:38:18.006Z,99.99
2018-07-11T12:39:17.996Z,99.99
2018-07-11T12:40:17.997Z,99.99
2018-07-11T12:41:17.996Z,99.99
2018-07-11T12:42:18.000Z,99.99
2018-07-11T12:43:17.732Z,99.99
2018-07-11T12:44:17.990Z,99.99
2018-07-11T12:45:17.988Z,97.28
2018-07-11T12:46:17.986Z,88.45
2018-07-11T12:47:17.980Z,95.65
2018-07-11T12:48:17.728Z,99.99
2018-07-11T12:49:17.980Z,99.99
2018-07-11T12:50:17.977Z,99.99
2018-07-11T12:51:17.983Z,99.99
2018-07-11T12:52:17.978Z,99.99
2018-07-11T12:53:17.717Z,99.99
2018-07-11T12:54:17.974Z,99.99
2018-07-11T12:55:17.969Z,98.58
2018-07-11T12:56:17.969Z,99.99
2018-07-11T12:57:17.708Z,99.99
2018-07-11T12:58:17.963Z,99.99
2018-07-11T12:59:17.962Z,99.99
2018-07-11T13:00:17.703Z,99.99
2018-07-11T13:01:17.710Z,99.99
2018-07-11T13:02:17.960Z,99.99
2018-07-11T13:03:17.957Z,99.99
2018-07-11T13:04:17.957Z,98
2018-07-11T13:05:17.698Z,92.76
2018-07-11T13:06:17.695Z,94.78
2018-07-11T13:07:17.956Z,93.91
2018-07-11T13:08:17.950Z,90.45
2018-07-11T13:09:17.955Z,85.44
2018-07-11T13:10:17.958Z,81.02
2018-07-11T13:11:17.952Z,75.82
2018-07-11T13:12:17.950Z,79.38
2018-07-11T13:13:17.690Z,85.93
2018-07-11T13:14:17.944Z,93.19
2018-07-11T13:15:17.945Z,91.17
2018-07-11T13:16:18.136Z,84.91
2018-07-11T13:17:17.958Z,76.25
2018-07-11T13:18:17.957Z,81.83
2018-07-11T13:19:17.691Z,76.25